Time;durP1;ratioP1;P1;durP2;ratioP2;P2;SDS_P1;SDS_P2;PMS_P1;PMS_P2;Temp;Humidity;BMP_temperature;BMP_pressure;BME280_temperature;BME280_humidity;BME280_pressure;Samples;Min_cycle;Max_cycle;Signal;HPM_P1;HPM_P2
2024/03/19 00:02:20;;;;;;;4.82;0.73;;;;;;;11.36;100.00;99449.88;5001125;28;20054;-60
2024/03/19 00:04:46;;;;;;;2.28;0.85;;;;;;;11.37;100.00;99447.91;4988980;28;20045;-61
2024/03/19 00:07:12;;;;;;;4.32;0.68;;;;;;;11.38;100.00;99457.84;5000604;28;20062;-60
2024/03/19 00:09:38;;;;;;;3.83;0.75;;;;;;;11.38;100.00;99450.31;5005782;28;20092;-60
2024/03/19 00:12:05;;;;;;;5.50;0.90;;;;;;;11.38;100.00;99463.38;5004279;28;20046;-60
2024/03/19 00:14:31;;;;;;;2.10;0.80;;;;;;;11.38;100.00;99457.84;5018102;28;20049;-60
2024/03/19 00:16:58;;;;;;;5.78;1.08;;;;;;;11.41;100.00;99463.38;5007509;28;20061;-60
2024/03/19 00:19:24;;;;;;;3.15;1.00;;;;;;;11.43;100.00;99471.34;5008572;28;20061;-60
2024/03/19 00:21:50;;;;;;;5.90;2.08;;;;;;;11.45;100.00;99488.38;5011685;28;20704;-60
2024/03/19 00:24:18;;;;;;;4.78;0.88;;;;;;;11.46;100.00;99470.59;4996752;28;20429;-61
2024/03/19 00:26:45;;;;;;;3.50;1.20;;;;;;;11.45;100.00;99474.53;4988874;28;20050;-59
2024/03/19 00:29:11;;;;;;;4.50;1.10;;;;;;;11.42;100.00;99481.63;4990325;28;20054;-60
2024/03/19 00:31:38;;;;;;;6.35;1.08;;;;;;;11.39;100.00;99487.13;5003256;28;20061;-60
2024/03/19 00:34:04;;;;;;;3.75;0.90;;;;;;;11.36;100.00;99482.34;5008093;28;20057;-60
2024/03/19 00:36:30;;;;;;;7.22;1.13;;;;;;;11.34;100.00;99491.03;4994922;28;20042;-61
2024/03/19 00:38:56;;;;;;;2.75;0.82;;;;;;;11.30;100.00;99500.50;4999226;28;20050;-60
2024/03/19 00:41:23;;;;;;;9.07;1.60;;;;;;;11.30;100.00;99497.72;5012561;28;20053;-61
2024/03/19 00:43:49;;;;;;;9.63;2.40;;;;;;;11.29;100.00;99493.34;5009214;28;20054;-60
2024/03/19 00:46:15;;;;;;;8.10;1.75;;;;;;;11.26;100.00;99506.00;4997049;28;20038;-60
2024/03/19 00:48:41;;;;;;;9.95;2.55;;;;;;;11.25;100.00;99504.41;5001298;28;20042;-61
2024/03/19 00:51:08;;;;;;;11.73;1.92;;;;;;;11.26;100.00;99506.00;4997062;28;20673;-59
2024/03/19 00:53:34;;;;;;;6.13;2.08;;;;;;;11.24;100.00;99516.66;4994197;28;20047;-60
2024/03/19 00:56:01;;;;;;;8.55;2.28;;;;;;;11.26;100.00;99538.44;5007582;28;20073;-59
2024/03/19 00:58:28;;;;;;;4.78;1.80;;;;;;;11.20;100.00;99532.44;5010952;28;20488;-59
2024/03/19 01:00:54;;;;;;;7.65;1.10;;;;;;;11.15;100.00;99538.31;5010250;28;20405;-60
2024/03/19 01:03:20;;;;;;;6.32;1.65;;;;;;;11.08;100.00;99543.78;5004398;28;20049;-60
2024/03/19 01:05:47;;;;;;;10.85;1.65;;;;;;;11.03;100.00;99555.22;4991911;28;20419;-61
2024/03/19 01:08:13;;;;;;;11.68;3.63;;;;;;;10.97;100.00;99565.00;5003852;28;20049;-60
2024/03/19 01:10:39;;;;;;;5.70;1.45;;;;;;;10.89;100.00;99564.13;4992444;28;20634;-59
2024/03/19 01:13:06;;;;;;;4.15;1.33;;;;;;;10.80;100.00;99558.06;4996172;28;20054;-59
2024/03/19 01:15:32;;;;;;;4.93;1.23;;;;;;;10.73;100.00;99582.09;5000750;28;21488;-60
2024/03/19 01:17:59;;;;;;;4.97;1.02;;;;;;;10.63;100.00;99574.44;5002222;28;20038;-59
2024/03/19 01:20:26;;;;;;;6.22;1.27;;;;;;;10.55;100.00;99592.91;5015744;28;20054;-60
2024/03/19 01:22:52;;;;;;;8.57;1.13;;;;;;;10.50;100.00;99590.47;5011826;28;20524;-59
2024/03/19 01:25:18;;;;;;;4.50;0.95;;;;;;;10.48;100.00;99592.00;4988425;28;20050;-60
2024/03/19 01:27:45;;;;;;;6.35;0.98;;;;;;;10.44;100.00;99600.25;4999318;28;20054;-60
2024/03/19 01:30:12;;;;;;;9.00;0.98;;;;;;;10.39;100.00;99593.06;4996376;28;20049;-60
2024/03/19 01:32:38;;;;;;;7.93;1.00;;;;;;;10.33;100.00;99605.63;4998111;28;20058;-59
2024/03/19 01:35:05;;;;;;;7.72;1.02;;;;;;;10.27;100.00;99612.63;4979776;28;20058;-60
2024/03/19 01:37:31;;;;;;;4.85;0.80;;;;;;;10.20;100.00;99615.28;4980039;28;20390;-59
2024/03/19 01:39:57;;;;;;;7.18;1.23;;;;;;;10.17;100.00;99620.75;5015664;28;20042;-60
2024/03/19 01:42:24;;;;;;;5.03;1.70;;;;;;;10.12;100.00;99618.25;5010281;28;20403;-60
2024/03/19 01:45:07;;;;;;;8.35;0.88;;;;;;;10.07;100.00;99627.66;5013674;28;20054;-59
2024/03/19 01:47:35;;;;;;;8.45;1.33;;;;;;;10.02;100.00;99627.97;5001776;28;20062;-60
2024/03/19 01:50:06;;;;;;;4.45;1.08;;;;;;;9.98;100.00;99631.88;5001036;28;20062;-59
2024/03/19 01:52:38;;;;;;;3.67;0.68;;;;;;;9.91;99.99;99640.81;4998276;28;20049;-60
2024/03/19 01:55:05;;;;;;;3.90;0.93;;;;;;;9.88;100.00;99643.50;5007149;28;20057;-60
2024/03/19 01:57:32;;;;;;;10.82;1.73;;;;;;;9.84;99.68;99654.50;5006241;28;20511;-59
2024/03/19 01:59:59;;;;;;;6.25;1.50;;;;;;;9.81;99.93;99666.31;5008349;28;20436;-60
2024/03/19 02:02:36;;;;;;;6.85;1.40;;;;;;;9.75;100.00;99656.69;5009697;28;20397;-59
2024/03/19 02:05:07;;;;;;;2.05;0.73;;;;;;;9.70;100.00;99674.38;5001341;28;20046;-59
2024/03/19 02:07:34;;;;;;;7.32;1.20;;;;;;;9.68;100.00;99670.38;5012535;28;20054;-59
2024/03/19 02:10:01;;;;;;;4.28;1.30;;;;;;;9.65;99.96;99673.88;4994613;28;20058;-59
2024/03/19 02:12:28;;;;;;;4.70;0.85;;;;;;;9.63;99.89;99673.44;5008285;28;20046;-60
2024/03/19 02:14:54;;;;;;;3.75;0.88;;;;;;;9.57;99.66;99681.22;5005498;28;20050;-60
2024/03/19 02:17:22;;;;;;;3.33;0.60;;;;;;;9.56;99.91;99678.81;4999815;28;20060;-59
2024/03/19 02:19:49;;;;;;;5.70;0.80;;;;;;;9.53;99.90;99682.34;5018380;28;20058;-60
2024/03/19 02:22:16;;;;;;;10.15;1.40;;;;;;;9.50;99.92;99680.28;4993821;28;20050;-60
2024/03/19 02:24:43;;;;;;;7.38;0.70;;;;;;;9.46;100.00;99685.72;5011717;28;20541;-59
2024/03/19 02:27:11;;;;;;;3.20;0.85;;;;;;;9.44;100.00;99687.25;5005061;28;20072;-60
2024/03/19 02:29:38;;;;;;;5.85;1.00;;;;;;;9.41;100.00;99683.28;4998455;28;20061;-60
2024/03/19 02:32:04;;;;;;;5.85;1.30;;;;;;;9.39;100.00;99685.59;4979633;28;20053;-60
2024/03/19 02:34:31;;;;;;;3.80;0.80;;;;;;;9.38;100.00;99697.81;4987140;28;20050;-60
2024/03/19 02:36:58;;;;;;;11.57;1.58;;;;;;;9.37;100.00;99690.66;5006356;28;20049;-60
2024/03/19 02:39:24;;;;;;;7.60;0.80;;;;;;;9.38;100.00;99694.22;4999318;28;20050;-60
2024/03/19 02:41:51;;;;;;;6.78;0.85;;;;;;;9.40;100.00;99711.25;4991564;28;20054;-60
2024/03/19 02:44:17;;;;;;;5.55;1.77;;;;;;;9.39;100.00;99702.16;4991982;28;20046;-59
2024/03/19 02:46:44;;;;;;;8.85;2.17;;;;;;;9.38;100.00;99719.09;4992866;28;20535;-59
2024/03/19 02:49:10;;;;;;;5.05;0.70;;;;;;;9.36;100.00;99732.47;4992218;28;20056;-59
2024/03/19 02:51:36;;;;;;;2.38;0.70;;;;;;;9.38;100.00;99732.91;5009879;28;20491;-60
2024/03/19 02:54:02;;;;;;;8.25;1.00;;;;;;;9.39;100.00;99740.03;4987928;28;20060;-60
2024/03/19 02:56:29;;;;;;;3.42;0.95;;;;;;;9.40;100.00;99739.66;4994822;28;20050;-61
2024/03/19 02:58:56;;;;;;;11.93;2.90;;;;;;;9.40;100.00;99747.19;5001491;28;20051;-60
2024/03/19 03:01:22;;;;;;;9.93;1.85;;;;;;;9.39;100.00;99746.38;5060090;23;20480;-60
2024/03/19 03:03:49;;;;;;;5.13;0.57;;;;;;;9.38;100.00;99757.75;4929927;29;20424;-60
2024/03/19 03:06:15;;;;;;;7.53;0.80;;;;;;;9.39;100.00;99762.13;4936721;28;20446;-60
2024/03/19 03:08:41;;;;;;;5.72;0.90;;;;;;;9.39;100.00;99764.91;4915290;29;20083;-60
2024/03/19 03:11:09;;;;;;;6.15;2.47;;;;;;;9.39;100.00;99770.44;4928812;29;20055;-61
2024/03/19 03:13:35;;;;;;;9.27;1.20;;;;;;;9.40;100.00;99772.03;4915486;28;20062;-60
2024/03/19 03:16:01;;;;;;;8.65;1.27;;;;;;;9.43;100.00;99774.06;4930010;28;20058;-60
2024/03/19 03:18:28;;;;;;;6.18;1.05;;;;;;;9.44;100.00;99776.47;4928633;29;20417;-60
2024/03/19 03:20:54;;;;;;;6.57;1.25;;;;;;;9.45;100.00;99777.28;4920965;29;20065;-60
2024/03/19 03:23:20;;;;;;;3.53;1.20;;;;;;;9.42;100.00;99778.81;4927252;29;20047;-61
2024/03/19 03:25:47;;;;;;;2.10;0.70;;;;;;;9.41;100.00;99787.44;4915501;29;20051;-60
2024/03/19 03:28:13;;;;;;;5.50;0.98;;;;;;;9.38;100.00;99800.00;4931815;29;20050;-60
2024/03/19 03:30:41;;;;;;;7.25;1.23;;;;;;;9.39;100.00;99807.16;4934337;28;20051;-60
2024/03/19 03:33:07;;;;;;;3.92;0.77;;;;;;;9.42;100.00;99811.16;4927624;29;21163;-60
2024/03/19 03:35:33;;;;;;;12.73;2.05;;;;;;;9.45;100.00;99807.66;4921849;29;20059;-59
2024/03/19 03:37:59;;;;;;;10.80;1.33;;;;;;;9.47;100.00;99810.88;4927119;29;20048;-60
2024/03/19 03:40:27;;;;;;;4.82;0.80;;;;;;;9.48;100.00;99815.22;4924677;29;20413;-60
2024/03/19 03:42:53;;;;;;;7.05;1.10;;;;;;;9.46;100.00;99814.78;4914923;29;20051;-59
2024/03/19 03:45:21;;;;;;;5.72;1.52;;;;;;;9.45;100.00;99821.47;4930840;28;20048;-60
2024/03/19 03:47:48;;;;;;;8.07;0.98;;;;;;;9.43;100.00;99834.84;4917406;28;20124;-60
2024/03/19 03:50:15;;;;;;;7.97;2.50;;;;;;;9.42;100.00;99836.00;4931208;29;20555;-60
2024/03/19 03:52:41;;;;;;;15.15;2.55;;;;;;;9.41;100.00;99848.22;4930790;29;20058;-60
2024/03/19 03:55:10;;;;;;;4.13;0.88;;;;;;;9.38;100.00;99844.22;4931082;28;20063;-60
2024/03/19 03:57:37;;;;;;;8.23;1.30;;;;;;;9.39;100.00;99853.31;4930973;29;20059;-60
2024/03/19 04:00:10;;;;;;;6.63;1.30;;;;;;;9.39;100.00;99853.31;4929680;28;20058;-60
2024/03/19 04:02:37;;;;;;;5.63;1.17;;;;;;;9.38;100.00;99855.25;4915904;28;20059;-60
2024/03/19 04:05:04;;;;;;;6.32;1.13;;;;;;;9.38;100.00;99862.75;4930953;29;20421;-60
2024/03/19 04:07:30;;;;;;;6.85;1.50;;;;;;;9.38;100.00;99855.25;4917989;29;20442;-60
2024/03/19 04:09:56;;;;;;;4.25;1.17;;;;;;;9.35;100.00;99860.69;4930397;29;20683;-59
2024/03/19 04:12:22;;;;;;;15.45;3.10;;;;;;;9.33;100.00;99863.81;4931446;29;20082;-62
2024/03/19 04:14:49;;;;;;;11.15;1.60;;;;;;;9.35;100.00;99871.72;4930660;29;20047;-59
2024/03/19 04:17:17;;;;;;;9.65;3.17;;;;;;;9.34;100.00;99865.44;4930893;29;20058;-60
2024/03/19 04:19:43;;;;;;;6.47;2.95;;;;;;;9.32;100.00;99875.25;4929593;29;20059;-61
2024/03/19 04:22:09;;;;;;;7.88;1.73;;;;;;;9.31;100.00;99876.38;4930562;28;20055;-60
2024/03/19 04:24:35;;;;;;;10.77;2.25;;;;;;;9.29;100.00;99884.25;4930769;28;20047;-60
2024/03/19 04:27:02;;;;;;;21.10;4.00;;;;;;;9.29;100.00;99889.75;4918273;29;20059;-60
2024/03/19 04:29:28;;;;;;;5.72;1.65;;;;;;;9.30;100.00;99888.59;4934333;28;20043;-59
2024/03/19 04:31:54;;;;;;;11.30;1.92;;;;;;;9.31;100.00;99904.00;4934335;29;20540;-60
2024/03/19 04:34:21;;;;;;;9.35;1.38;;;;;;;9.29;100.00;99900.81;4934564;28;20059;-60
2024/03/19 04:36:47;;;;;;;7.57;1.20;;;;;;;9.28;100.00;99905.53;4925144;29;20058;-60
2024/03/19 04:39:16;;;;;;;10.52;2.00;;;;;;;9.29;100.00;99906.34;4917340;29;20051;-60
2024/03/19 04:41:42;;;;;;;12.90;2.15;;;;;;;9.31;100.00;99917.81;4931200;29;20059;-59
2024/03/19 04:44:09;;;;;;;10.10;1.73;;;;;;;9.27;100.00;99912.19;4929789;29;20048;-60
2024/03/19 04:46:35;;;;;;;7.43;1.80;;;;;;;9.27;100.00;99905.88;4922371;29;20051;-59
2024/03/19 04:49:02;;;;;;;11.60;1.48;;;;;;;9.23;100.00;99921.56;4931822;28;20069;-59
2024/03/19 04:51:31;;;;;;;13.10;2.72;;;;;;;9.22;100.00;99928.22;4930574;29;20442;-59
2024/03/19 04:53:57;;;;;;;6.43;1.25;;;;;;;9.19;100.00;99927.78;4931549;29;20054;-60
2024/03/19 04:56:24;;;;;;;8.05;1.90;;;;;;;9.17;100.00;99923.78;4930833;29;20061;-60
2024/03/19 04:58:50;;;;;;;5.18;1.25;;;;;;;9.13;100.00;99925.66;4929422;29;20052;-60
2024/03/19 05:01:17;;;;;;;4.38;1.10;;;;;;;9.07;100.00;99927.88;4910403;29;20067;-60
2024/03/19 05:03:44;;;;;;;4.82;2.17;;;;;;;9.03;100.00;99928.94;4930311;29;20496;-60
2024/03/19 05:06:11;;;;;;;5.70;1.48;;;;;;;8.98;100.00;99945.75;4936270;28;20408;-60
2024/03/19 05:08:39;;;;;;;8.57;1.40;;;;;;;8.92;100.00;99945.22;4938999;28;20054;-59
2024/03/19 05:11:05;;;;;;;5.30;1.40;;;;;;;8.88;100.00;99957.31;4914704;29;20515;-60
2024/03/19 05:13:31;;;;;;;11.95;3.22;;;;;;;8.89;100.00;99961.69;4931076;29;20062;-60
2024/03/19 05:15:58;;;;;;;10.00;2.80;;;;;;;8.89;100.00;99964.44;4919039;29;20063;-60
2024/03/19 05:18:24;;;;;;;4.25;1.27;;;;;;;8.91;100.00;99976.75;4917726;29;20043;-60
2024/03/19 05:20:51;;;;;;;9.32;1.77;;;;;;;8.95;100.00;99991.44;4933519;28;20055;-60
2024/03/19 05:23:17;;;;;;;6.10;1.48;;;;;;;9.00;100.00;99993.94;4933551;29;20043;-59
2024/03/19 05:25:43;;;;;;;8.40;1.90;;;;;;;9.03;100.00;99990.47;4934263;29;20497;-60
2024/03/19 05:28:10;;;;;;;13.30;1.70;;;;;;;9.04;100.00;99988.53;4916352;29;20063;-60
2024/03/19 05:30:37;;;;;;;9.85;3.13;;;;;;;9.05;100.00;99988.16;4930467;29;20434;-59
2024/03/19 05:33:04;;;;;;;9.00;2.03;;;;;;;9.08;100.00;99998.50;4948007;28;20044;-60
2024/03/19 05:35:30;;;;;;;7.90;1.73;;;;;;;9.07;100.00;99999.66;4939933;28;20051;-59
2024/03/19 05:37:57;;;;;;;7.78;1.92;;;;;;;9.09;100.00;99996.53;4923579;29;20047;-60
2024/03/19 05:40:23;;;;;;;9.98;2.70;;;;;;;9.08;100.00;100006.78;4926790;29;20107;-60
2024/03/19 05:42:52;;;;;;;6.72;1.77;;;;;;;9.06;100.00;100011.84;4932246;29;20138;-60
2024/03/19 05:45:18;;;;;;;6.60;2.03;;;;;;;9.07;100.00;100019.00;4918457;29;20035;-59
2024/03/19 05:47:45;;;;;;;11.55;2.03;;;;;;;9.07;100.00;100027.28;4916994;29;20048;-60
2024/03/19 05:50:13;;;;;;;11.60;1.65;;;;;;;9.06;100.00;100024.84;4932592;29;20504;-60
2024/03/19 05:52:41;;;;;;;5.15;1.73;;;;;;;9.04;100.00;100033.50;4924221;29;20044;-60
2024/03/19 05:55:09;;;;;;;17.17;3.35;;;;;;;9.05;100.00;100035.09;4926573;29;20055;-62
2024/03/19 05:57:36;;;;;;;9.35;2.10;;;;;;;9.04;100.00;100039.03;4929935;29;20070;-59
2024/03/19 06:00:05;;;;;;;12.82;2.17;;;;;;;9.02;100.00;100032.25;4930928;28;20062;-59
2024/03/19 06:02:31;;;;;;;7.72;2.17;;;;;;;9.02;100.00;100038.59;4929372;28;20065;-59
2024/03/19 06:04:57;;;;;;;12.68;2.63;;;;;;;8.98;100.00;100040.44;4925463;29;20074;-60
2024/03/19 06:07:23;;;;;;;10.45;1.90;;;;;;;8.96;100.00;100048.25;4935570;29;20044;-60
2024/03/19 06:09:50;;;;;;;11.45;3.47;;;;;;;8.92;100.00;100046.56;4932761;28;20703;-60
2024/03/19 06:12:16;;;;;;;12.63;2.53;;;;;;;8.89;100.00;100053.59;4933371;28;20051;-59
2024/03/19 06:14:42;;;;;;;6.65;2.05;;;;;;;8.87;100.00;100058.63;4917020;29;20425;-60
2024/03/19 06:17:09;;;;;;;10.95;2.35;;;;;;;8.87;100.00;100061.41;4929511;29;20047;-60
2024/03/19 06:19:35;;;;;;;11.75;3.00;;;;;;;8.90;100.00;100068.97;4926151;28;20043;-61
2024/03/19 06:22:01;;;;;;;17.27;3.20;;;;;;;8.91;100.00;100072.56;4931899;29;20043;-60
2024/03/19 06:24:28;;;;;;;13.60;2.08;;;;;;;8.92;100.00;100072.19;4935275;29;20451;-59
2024/03/19 06:26:55;;;;;;;9.95;2.05;;;;;;;8.92;100.00;100082.44;4929871;29;20867;-61
2024/03/19 06:29:21;;;;;;;11.68;2.50;;;;;;;8.94;100.00;100085.66;4915950;29;20093;-59
2024/03/19 06:31:48;;;;;;;10.45;2.38;;;;;;;8.95;100.00;100090.81;4939583;28;20051;-60
2024/03/19 06:34:14;;;;;;;15.95;2.85;;;;;;;8.97;100.00;100083.00;4922498;28;20493;-59
2024/03/19 06:36:40;;;;;;;12.18;2.65;;;;;;;8.99;100.00;100096.44;4933558;29;20058;-60
2024/03/19 06:39:08;;;;;;;12.27;3.10;;;;;;;9.01;100.00;100092.19;4930733;29;20617;-59
2024/03/19 06:41:34;;;;;;;8.98;2.38;;;;;;;9.03;100.00;100106.44;4925059;29;20051;-59
2024/03/19 06:44:01;;;;;;;10.13;3.83;;;;;;;9.05;100.00;100104.13;4927813;28;20051;-59
2024/03/19 06:46:27;;;;;;;15.23;3.13;;;;;;;9.07;100.00;100107.34;4932935;29;20047;-59
2024/03/19 06:48:54;;;;;;;8.85;2.00;;;;;;;9.07;100.00;100109.31;4931698;28;20706;-60
2024/03/19 06:51:24;;;;;;;12.25;2.78;;;;;;;9.05;100.00;100128.97;4933239;28;20039;-60
2024/03/19 06:53:52;;;;;;;10.45;2.95;;;;;;;9.06;100.00;100129.78;4931132;28;20051;-60
2024/03/19 06:56:18;;;;;;;12.05;2.63;;;;;;;9.06;100.00;100136.13;4917692;29;20066;-59
2024/03/19 06:58:45;;;;;;;4.72;2.50;;;;;;;9.05;100.00;100133.72;4931857;28;20051;-59
2024/03/19 07:01:13;;;;;;;9.07;3.53;;;;;;;9.05;100.00;100145.53;4928186;29;20064;-61
2024/03/19 07:03:39;;;;;;;9.45;3.05;;;;;;;9.06;100.00;100151.88;4931676;29;20056;-60
2024/03/19 07:06:06;;;;;;;19.02;4.85;;;;;;;9.08;100.00;100153.13;4932259;28;20059;-60
2024/03/19 07:08:32;;;;;;;9.18;2.70;;;;;;;9.12;100.00;100159.56;4936958;28;20070;-60
2024/03/19 07:10:58;;;;;;;13.65;3.38;;;;;;;9.15;100.00;100166.34;4917376;29;20051;-60
2024/03/19 07:13:25;;;;;;;12.05;2.53;;;;;;;9.14;100.00;100171.06;4935674;28;20057;-61
2024/03/19 07:15:51;;;;;;;9.52;2.50;;;;;;;9.17;100.00;100170.38;4927970;29;20070;-60
2024/03/19 07:18:20;;;;;;;7.97;2.65;;;;;;;9.19;100.00;100179.09;4925522;29;20074;-59
2024/03/19 07:20:46;;;;;;;9.63;2.75;;;;;;;9.23;100.00;100173.69;4928366;29;20059;-60
2024/03/19 07:23:13;;;;;;;12.73;4.20;;;;;;;9.28;100.00;100180.94;4931017;28;20062;-60
2024/03/19 07:25:39;;;;;;;13.13;3.15;;;;;;;9.35;100.00;100186.66;4916007;29;20047;-59
2024/03/19 07:28:05;;;;;;;8.40;3.03;;;;;;;9.40;100.00;100181.69;4911692;29;20383;-59
2024/03/19 07:30:32;;;;;;;7.93;3.20;;;;;;;9.49;100.00;100185.13;4927403;28;20050;-60
2024/03/19 07:32:59;;;;;;;30.20;4.80;;;;;;;9.61;100.00;100192.56;4929844;29;20052;-59
2024/03/19 07:35:25;;;;;;;18.15;5.13;;;;;;;9.68;100.00;100184.47;4931999;29;20055;-60
2024/03/19 07:37:52;;;;;;;9.95;2.65;;;;;;;9.73;100.00;100192.50;4927540;29;20054;-59
2024/03/19 07:40:21;;;;;;;11.27;3.00;;;;;;;9.72;100.00;100208.28;4929032;29;20059;-59
2024/03/19 07:42:49;;;;;;;16.13;3.40;;;;;;;9.72;100.00;100201.94;4931476;29;20048;-60
2024/03/19 07:45:17;;;;;;;16.98;4.15;;;;;;;9.76;100.00;100211.16;4932295;29;20059;-60
2024/03/19 07:47:43;;;;;;;8.85;3.20;;;;;;;9.85;100.00;100211.00;4932061;29;20692;-60
2024/03/19 07:50:10;;;;;;;5.47;2.95;;;;;;;9.90;100.00;100217.03;4928563;29;20421;-59
2024/03/19 07:52:37;;;;;;;8.45;2.55;;;;;;;9.93;100.00;100227.41;4928986;29;20232;-60
2024/03/19 07:55:04;;;;;;;11.70;2.70;;;;;;;9.98;100.00;100242.97;4918781;28;20053;-60
2024/03/19 07:57:30;;;;;;;10.38;3.38;;;;;;;9.98;100.00;100240.97;4919352;29;20058;-60
2024/03/19 07:59:58;;;;;;;12.70;3.00;;;;;;;10.02;100.00;100241.88;4915253;28;20430;-60
2024/03/19 08:02:24;;;;;;;9.80;3.00;;;;;;;10.09;100.00;100250.38;4931879;28;20067;-60
2024/03/19 08:04:51;;;;;;;6.63;3.03;;;;;;;10.15;99.96;100259.25;4930445;28;20059;-59
2024/03/19 08:07:17;;;;;;;14.43;3.30;;;;;;;10.18;99.67;100264.88;4931626;29;20051;-59
2024/03/19 08:09:48;;;;;;;6.03;2.17;;;;;;;10.17;99.57;100268.81;4925528;29;20425;-59
2024/03/19 08:12:15;;;;;;;7.97;2.42;;;;;;;10.14;99.34;100260.44;4929895;29;20055;-60
2024/03/19 08:14:43;;;;;;;7.25;2.63;;;;;;;10.10;99.42;100268.59;4929364;29;20481;-59
2024/03/19 08:17:09;;;;;;;14.23;2.92;;;;;;;10.11;99.68;100272.94;4947135;29;20078;-59
2024/03/19 08:19:36;;;;;;;9.50;2.53;;;;;;;10.20;99.46;100279.16;4930934;29;20382;-59
2024/03/19 08:22:04;;;;;;;11.25;2.42;;;;;;;10.24;99.48;100277.31;4927420;29;20051;-59
2024/03/19 08:24:32;;;;;;;5.68;2.30;;;;;;;10.25;99.11;100281.66;4939417;28;20054;-59
2024/03/19 08:26:58;;;;;;;9.50;2.92;;;;;;;10.25;99.06;100289.97;4931525;29;20402;-59
2024/03/19 08:29:25;;;;;;;11.00;2.55;;;;;;;10.24;99.12;100291.13;4915159;28;20059;-60
2024/03/19 08:31:51;;;;;;;11.57;3.40;;;;;;;10.26;99.31;100294.34;4915840;28;20059;-60
2024/03/19 08:34:17;;;;;;;7.90;2.33;;;;;;;10.26;99.16;100286.06;4929520;28;20052;-59
2024/03/19 08:36:44;;;;;;;7.68;2.70;;;;;;;10.28;99.23;100291.22;4931036;28;20051;-59
2024/03/19 08:39:10;;;;;;;8.10;2.20;;;;;;;10.28;99.16;100285.69;4930357;29;21080;-60
2024/03/19 08:41:37;;;;;;;10.07;3.38;;;;;;;10.27;99.04;100290.41;4927712;29;20059;-59
2024/03/19 08:44:03;;;;;;;11.05;2.92;;;;;;;10.26;98.96;100299.88;4926483;29;20062;-59
2024/03/19 08:46:29;;;;;;;8.40;2.70;;;;;;;10.28;98.90;100308.63;4911984;29;20047;-59
2024/03/19 08:48:56;;;;;;;10.43;2.97;;;;;;;10.31;98.93;100316.22;4939769;28;20054;-59
2024/03/19 08:51:22;;;;;;;9.38;2.50;;;;;;;10.34;98.93;100320.25;4927491;29;20051;-59
2024/03/19 08:53:48;;;;;;;11.07;3.15;;;;;;;10.38;98.79;100319.19;4927943;28;20060;-61
2024/03/19 08:56:14;;;;;;;8.80;3.22;;;;;;;10.42;98.72;100324.00;4927421;29;20048;-59
2024/03/19 08:58:43;;;;;;;7.95;3.05;;;;;;;10.46;98.91;100330.47;4926873;29;20904;-59
2024/03/19 09:01:16;;;;;;;10.00;3.08;;;;;;;10.54;99.14;100337.78;4930767;29;20066;-59
2024/03/19 09:03:42;;;;;;;9.35;2.83;;;;;;;10.62;99.37;100342.34;4930678;28;20050;-59
2024/03/19 09:06:11;;;;;;;12.23;2.70;;;;;;;10.74;99.70;100342.28;4935221;28;20639;-59
2024/03/19 09:08:39;;;;;;;7.13;3.45;;;;;;;10.87;100.00;100352.09;4928643;29;20051;-59
2024/03/19 09:11:05;;;;;;;14.73;3.30;;;;;;;11.01;100.00;100347.72;4930588;29;20055;-59
2024/03/19 09:13:32;;;;;;;8.63;2.25;;;;;;;11.13;100.00;100349.59;4932751;29;20390;-60
2024/03/19 09:15:58;;;;;;;11.23;2.83;;;;;;;11.25;100.00;100352.25;4933899;28;20054;-59
2024/03/19 09:18:25;;;;;;;7.82;2.90;;;;;;;11.48;100.00;100355.19;4931084;29;20059;-60
2024/03/19 09:20:51;;;;;;;10.38;2.90;;;;;;;11.78;100.00;100358.28;4910332;29;20058;-59
2024/03/19 09:23:17;;;;;;;12.45;2.95;;;;;;;12.25;100.00;100356.13;4930327;29;20048;-59
2024/03/19 09:25:43;;;;;;;15.68;3.45;;;;;;;12.92;100.00;100362.16;4910632;28;20051;-59
2024/03/19 09:28:10;;;;;;;9.57;3.05;;;;;;;13.37;100.00;100362.13;4930130;29;20498;-60
2024/03/19 09:30:37;;;;;;;8.50;3.28;;;;;;;13.92;99.07;100369.75;4930856;29;20067;-59
2024/03/19 09:33:04;;;;;;;14.93;3.85;;;;;;;14.46;97.36;100374.03;4931967;28;20062;-59
2024/03/19 09:35:30;;;;;;;9.77;2.50;;;;;;;15.16;94.93;100374.78;4934494;28;20062;-62
2024/03/19 09:37:58;;;;;;;9.30;3.95;;;;;;;15.83;92.26;100364.13;4934366;28;20493;-59
2024/03/19 09:40:25;;;;;;;8.57;3.65;;;;;;;16.54;89.86;100388.84;4929614;29;20071;-60
2024/03/19 09:42:52;;;;;;;7.88;2.83;;;;;;;17.00;87.13;100375.75;4933570;28;20047;-59
2024/03/19 09:45:29;;;;;;;9.13;3.35;;;;;;;17.37;86.39;100378.97;4934154;29;20513;-60
2024/03/19 09:47:56;;;;;;;8.30;2.40;;;;;;;17.55;83.16;100396.59;4930508;29;20048;-60
2024/03/19 09:50:25;;;;;;;6.95;3.10;;;;;;;17.71;82.15;100399.00;4928728;28;20102;-60
2024/03/19 09:52:57;;;;;;;10.45;2.78;;;;;;;17.78;81.06;100399.00;4933199;29;20422;-60
2024/03/19 09:55:26;;;;;;;10.18;3.08;;;;;;;17.68;81.05;100396.19;4932580;28;20051;-61
2024/03/19 09:57:54;;;;;;;6.15;2.35;;;;;;;17.82;79.43;100410.19;4933205;28;20063;-60
2024/03/19 10:00:28;;;;;;;9.93;4.50;;;;;;;17.56;79.40;100409.41;4933290;28;20098;-59
2024/03/19 10:02:55;;;;;;;6.97;2.50;;;;;;;17.64;76.59;100399.81;4943448;28;20066;-60
2024/03/19 10:05:22;;;;;;;9.77;3.05;;;;;;;17.31;75.26;100408.59;4934688;28;20078;-59
2024/03/19 10:07:51;;;;;;;10.57;2.90;;;;;;;16.69;75.51;100410.84;4936194;28;20044;-60
2024/03/19 10:10:18;;;;;;;7.55;2.38;;;;;;;16.45;75.76;100403.94;4931717;28;20051;-59
2024/03/19 10:12:45;;;;;;;10.75;3.20;;;;;;;16.68;75.11;100394.47;4938287;28;20048;-59
2024/03/19 10:15:24;;;;;;;8.52;2.83;;;;;;;17.04;74.17;100402.56;4931886;28;20413;-60
2024/03/19 10:17:51;;;;;;;6.43;1.95;;;;;;;17.23;72.43;100409.78;4932582;28;20051;-60
2024/03/19 10:20:18;;;;;;;11.00;4.13;;;;;;;17.26;71.49;100422.94;4932732;29;20043;-60
2024/03/19 10:22:45;;;;;;;5.55;1.90;;;;;;;16.97;71.55;100416.50;4930327;29;20070;-60
2024/03/19 10:25:13;;;;;;;9.18;2.35;;;;;;;16.68;71.85;100414.03;4928932;29;20056;-59
2024/03/19 10:27:47;;;;;;;6.30;2.05;;;;;;;17.12;72.16;100411.75;4927885;28;20043;-59
2024/03/19 10:30:16;;;;;;;7.65;2.72;;;;;;;17.70;70.27;100421.78;4929240;29;20045;-60
2024/03/19 10:32:44;;;;;;;7.95;2.47;;;;;;;17.69;69.07;100422.97;4928647;29;20066;-59
2024/03/19 10:35:24;;;;;;;6.00;1.65;;;;;;;17.17;69.70;100424.53;4932967;29;20469;-59
2024/03/19 10:37:51;;;;;;;5.80;1.67;;;;;;;16.73;69.66;100422.06;4929513;29;20081;-60
2024/03/19 10:40:20;;;;;;;11.25;2.03;;;;;;;16.53;69.04;100423.56;4921833;29;20047;-59
2024/03/19 10:42:50;;;;;;;6.53;1.85;;;;;;;16.20;68.80;100421.78;4931572;28;20067;-60
2024/03/19 10:45:21;;;;;;;8.40;2.05;;;;;;;15.67;69.74;100422.22;4913120;29;20060;-59
2024/03/19 10:47:49;;;;;;;5.63;2.23;;;;;;;15.27;70.48;100424.25;4929627;29;20048;-60
2024/03/19 10:50:17;;;;;;;7.10;2.35;;;;;;;15.38;70.75;100425.94;4923856;29;20478;-59
2024/03/19 10:53:00;;;;;;;5.95;2.33;;;;;;;15.89;69.20;100425.16;4932626;28;20047;-59
2024/03/19 10:55:30;;;;;;;10.68;2.70;;;;;;;15.60;68.65;100438.13;4931466;29;20054;-60
2024/03/19 10:58:03;;;;;;;6.47;2.28;;;;;;;15.07;70.54;100427.25;4913143;29;20056;-60
2024/03/19 11:00:30;;;;;;;7.20;1.80;;;;;;;15.67;69.23;100438.19;4929852;29;20047;-59
2024/03/19 11:03:00;;;;;;;5.68;2.10;;;;;;;15.74;68.17;100441.03;4932753;29;20063;-59
2024/03/19 11:05:33;;;;;;;5.43;1.92;;;;;;;15.14;69.08;100443.25;4929114;29;20060;-60
2024/03/19 11:08:03;;;;;;;7.30;2.20;;;;;;;14.56;70.47;100452.16;4937611;28;20054;-60
2024/03/19 11:10:31;;;;;;;4.90;1.92;;;;;;;14.04;71.97;100436.31;4931275;28;20051;-59
2024/03/19 11:13:08;;;;;;;6.15;2.15;;;;;;;13.60;72.99;100451.94;4932174;29;20047;-60
2024/03/19 11:15:36;;;;;;;7.05;2.30;;;;;;;13.34;73.81;100457.44;4929067;29;20048;-59
2024/03/19 11:18:11;;;;;;;13.60;3.33;;;;;;;13.15;74.62;100454.72;4926782;29;20048;-60
2024/03/19 11:20:47;;;;;;;9.80;3.60;;;;;;;13.11;75.03;100460.19;4928766;29;20063;-59
2024/03/19 11:23:15;;;;;;;11.68;2.17;;;;;;;13.09;75.37;100453.41;4930672;29;20066;-59
2024/03/19 11:25:43;;;;;;;8.80;3.08;;;;;;;13.14;75.48;100459.47;4916787;28;20059;-59